Time;durP1;ratioP1;P1;durP2;ratioP2;P2;SDS_P1;SDS_P2;PMS_P1;PMS_P2;Temp;Humidity;BMP_temperature;BMP_pressure;BME280_temperature;BME280_humidity;BME280_pressure;Samples;Min_cycle;Max_cycle;Signal;HPM_P1;HPM_P2
2023/07/22 00:00:00;;;;;;;4.80;3.10;;;14.00;99.90;;;;;;5050283;28;20226;-29
2023/07/22 00:02:27;;;;;;;4.17;3.10;;;13.90;99.90;;;;;;5048402;28;20174;-30
2023/07/22 00:04:53;;;;;;;3.70;2.60;;;13.80;99.90;;;;;;5046421;28;20185;-30
2023/07/22 00:07:21;;;;;;;3.53;2.90;;;13.90;99.90;;;;;;5047839;28;20189;-29
2023/07/22 00:09:49;;;;;;;3.37;2.93;;;13.90;99.90;;;;;;5049076;28;20201;-29
2023/07/22 00:12:16;;;;;;;5.03;3.13;;;13.90;99.90;;;;;;5048612;28;20195;-29
2023/07/22 00:14:42;;;;;;;5.80;3.27;;;13.90;99.90;;;;;;5032343;28;20209;-29
2023/07/22 00:17:08;;;;;;;3.47;3.17;;;13.90;99.90;;;;;;5033061;28;20174;-29
2023/07/22 00:19:34;;;;;;;3.30;3.00;;;13.80;99.90;;;;;;5032996;28;20197;-29
2023/07/22 00:22:00;;;;;;;4.50;3.27;;;13.80;99.90;;;;;;5032576;28;20185;-29
2023/07/22 00:24:26;;;;;;;6.53;3.07;;;13.80;99.90;;;;;;5048963;28;20193;-30
2023/07/22 00:26:51;;;;;;;4.10;2.63;;;13.70;99.90;;;;;;5032805;28;20178;-29
2023/07/22 00:29:17;;;;;;;3.57;3.20;;;13.70;99.90;;;;;;5032891;28;20200;-30
2023/07/22 00:31:44;;;;;;;5.40;2.87;;;13.60;99.90;;;;;;5032384;28;20178;-30
2023/07/22 00:34:10;;;;;;;3.37;2.97;;;13.50;99.90;;;;;;5061726;28;20212;-29
2023/07/22 00:36:37;;;;;;;6.43;3.00;;;13.60;99.90;;;;;;5049103;28;20230;-28
2023/07/22 00:39:04;;;;;;;3.47;3.00;;;13.50;99.90;;;;;;5049376;28;20232;-30
2023/07/22 00:41:30;;;;;;;4.33;2.90;;;13.50;99.90;;;;;;5049752;28;20184;-30
2023/07/22 00:43:56;;;;;;;2.90;2.60;;;13.60;99.90;;;;;;5049203;28;20177;-29
2023/07/22 00:46:22;;;;;;;5.73;2.90;;;13.50;99.90;;;;;;5049344;28;20310;-29
2023/07/22 00:48:49;;;;;;;5.80;2.97;;;13.50;99.90;;;;;;5048857;28;20279;-29
2023/07/22 00:51:15;;;;;;;3.50;2.90;;;13.50;99.90;;;;;;5065678;28;20281;-30
2023/07/22 00:53:41;;;;;;;5.13;2.90;;;13.50;99.90;;;;;;5048805;28;20212;-30
2023/07/22 00:56:07;;;;;;;4.13;3.00;;;13.50;99.90;;;;;;5049492;28;20243;-30
2023/07/22 00:58:34;;;;;;;3.60;2.70;;;13.50;99.90;;;;;;5048326;28;20208;-29
2023/07/22 01:00:59;;;;;;;3.27;2.90;;;13.50;99.90;;;;;;5049151;28;20197;-30
2023/07/22 01:03:26;;;;;;;3.27;2.97;;;13.40;99.90;;;;;;5050187;28;20189;-30
2023/07/22 01:05:53;;;;;;;3.50;3.20;;;13.40;99.90;;;;;;5057767;28;20208;-30
2023/07/22 01:08:19;;;;;;;4.37;3.07;;;13.50;99.90;;;;;;5064081;28;20205;-29
2023/07/22 01:10:45;;;;;;;5.20;3.07;;;13.40;99.90;;;;;;5053842;28;20176;-30
2023/07/22 01:13:10;;;;;;;3.67;3.30;;;13.40;99.90;;;;;;5048252;28;20191;-30
2023/07/22 01:15:37;;;;;;;4.13;3.30;;;13.40;99.90;;;;;;5046040;28;20318;-30
2023/07/22 01:18:03;;;;;;;3.60;3.00;;;13.40;99.90;;;;;;5047759;28;20179;-29
2023/07/22 01:20:30;;;;;;;2.97;2.70;;;13.20;99.90;;;;;;5036045;28;20185;-29
2023/07/22 01:22:56;;;;;;;4.10;3.27;;;13.20;99.90;;;;;;5052406;28;20265;-30
2023/07/22 01:25:23;;;;;;;7.67;3.53;;;13.10;99.90;;;;;;5052088;28;20180;-30
2023/07/22 01:27:52;;;;;;;3.80;3.03;;;13.10;99.90;;;;;;5052118;28;20188;-29
2023/07/22 01:30:19;;;;;;;5.00;3.03;;;13.10;99.90;;;;;;5051712;28;20195;-29
2023/07/22 01:32:46;;;;;;;3.80;3.33;;;13.00;99.90;;;;;;5063564;28;20274;-30
2023/07/22 01:35:12;;;;;;;3.27;2.83;;;12.90;99.90;;;;;;5032514;28;20199;-29
2023/07/22 01:37:38;;;;;;;4.00;3.33;;;12.90;99.90;;;;;;5059184;28;20199;-30
2023/07/22 01:40:13;;;;;;;4.70;3.53;;;12.90;99.90;;;;;;5051955;28;20206;-29
2023/07/22 01:42:43;;;;;;;6.23;3.87;;;12.90;99.90;;;;;;5051684;28;20175;-29
2023/07/22 01:45:10;;;;;;;3.87;3.33;;;12.90;99.90;;;;;;5052333;28;20183;-30
2023/07/22 01:47:36;;;;;;;3.50;3.20;;;12.80;99.90;;;;;;5063891;28;20176;-29
2023/07/22 01:50:03;;;;;;;4.20;3.70;;;12.80;99.90;;;;;;5051981;28;20245;-29
2023/07/22 01:52:29;;;;;;;4.00;3.57;;;12.80;99.90;;;;;;5051992;28;20219;-29
2023/07/22 01:54:55;;;;;;;4.30;3.37;;;12.80;99.90;;;;;;5035253;28;20230;-29
2023/07/22 01:57:21;;;;;;;6.57;3.73;;;12.90;99.90;;;;;;5034699;28;20192;-29
2023/07/22 01:59:47;;;;;;;4.10;3.70;;;12.80;99.90;;;;;;5035426;28;20225;-30
2023/07/22 02:02:14;;;;;;;4.40;3.13;;;12.80;99.90;;;;;;5034928;28;20188;-30
2023/07/22 02:04:40;;;;;;;4.17;3.33;;;12.80;99.90;;;;;;5035302;28;20196;-30
2023/07/22 02:07:06;;;;;;;4.00;3.20;;;12.90;99.90;;;;;;5051599;28;20184;-29
2023/07/22 02:09:35;;;;;;;3.80;3.17;;;12.90;99.90;;;;;;5035140;28;20288;-29
2023/07/22 02:12:01;;;;;;;3.90;3.10;;;12.90;99.90;;;;;;5034526;28;20218;-28
2023/07/22 02:14:27;;;;;;;4.30;3.47;;;12.90;99.90;;;;;;5051495;28;20212;-29
2023/07/22 02:16:53;;;;;;;6.00;3.53;;;12.80;99.90;;;;;;5051344;28;20175;-30
2023/07/22 02:19:19;;;;;;;3.90;3.50;;;12.90;99.90;;;;;;5057509;28;20202;-30
2023/07/22 02:21:45;;;;;;;3.30;3.00;;;12.80;99.90;;;;;;5069920;28;20183;-30
2023/07/22 02:24:11;;;;;;;5.77;3.30;;;12.80;99.90;;;;;;5067432;28;20176;-29
2023/07/22 02:26:37;;;;;;;4.13;3.13;;;12.80;99.90;;;;;;5034498;28;20218;-29
2023/07/22 02:29:03;;;;;;;4.00;3.20;;;12.80;99.90;;;;;;5035101;28;20213;-30
2023/07/22 02:31:28;;;;;;;4.77;3.20;;;12.80;99.90;;;;;;5066257;28;20188;-30
2023/07/22 02:33:55;;;;;;;3.70;2.83;;;12.80;99.90;;;;;;5078900;28;20191;-29
2023/07/22 02:36:21;;;;;;;4.43;2.97;;;12.80;99.90;;;;;;5078619;28;20180;-30
2023/07/22 02:38:46;;;;;;;5.47;3.40;;;12.80;99.90;;;;;;5053938;28;20227;-29
2023/07/22 02:41:12;;;;;;;4.90;3.40;;;12.80;99.90;;;;;;5051376;28;20265;-30
2023/07/22 02:43:40;;;;;;;4.57;3.63;;;12.70;99.90;;;;;;5050805;28;20170;-30
2023/07/22 02:46:07;;;;;;;6.17;3.10;;;12.60;99.90;;;;;;5054325;28;20190;-29
2023/07/22 02:48:34;;;;;;;4.53;3.43;;;12.60;99.90;;;;;;5053302;28;20217;-30
2023/07/22 02:51:13;;;;;;;6.40;3.17;;;12.60;99.90;;;;;;5055625;28;20176;-30
2023/07/22 02:53:39;;;;;;;4.77;3.50;;;12.50;99.90;;;;;;5051061;28;20193;-29
2023/07/22 02:56:08;;;;;;;3.83;3.27;;;12.40;99.90;;;;;;5055591;28;20219;-29
2023/07/22 02:58:34;;;;;;;4.67;3.53;;;12.40;99.90;;;;;;5052001;28;20204;-30
2023/07/22 03:01:00;;;;;;;7.57;3.60;;;12.40;99.90;;;;;;5052396;28;20176;-29
2023/07/22 03:03:26;;;;;;;4.63;3.67;;;12.40;99.90;;;;;;5070150;28;20238;-30
2023/07/22 03:05:52;;;;;;;3.60;3.20;;;12.40;99.90;;;;;;5070555;28;20186;-29
2023/07/22 03:08:18;;;;;;;5.73;3.03;;;12.50;99.90;;;;;;5070391;28;20214;-29
2023/07/22 03:10:50;;;;;;;4.47;3.30;;;12.50;99.90;;;;;;5049022;28;20175;-29
2023/07/22 03:13:17;;;;;;;3.83;3.10;;;12.50;99.90;;;;;;5051203;28;20191;-30
2023/07/22 03:15:44;;;;;;;4.40;3.33;;;12.50;99.90;;;;;;5050732;28;20677;-30
2023/07/22 03:18:10;;;;;;;5.03;3.60;;;12.50;99.90;;;;;;5053984;28;20197;-29
2023/07/22 03:20:37;;;;;;;4.60;3.80;;;12.40;99.90;;;;;;5056111;28;20175;-29
2023/07/22 03:23:04;;;;;;;4.53;3.50;;;12.40;99.90;;;;;;5058448;28;20215;-30
2023/07/22 03:25:31;;;;;;;5.70;3.33;;;12.40;99.90;;;;;;5056033;28;20187;-30
2023/07/22 03:27:56;;;;;;;4.43;3.30;;;12.40;99.90;;;;;;5037998;28;20215;-28
2023/07/22 03:30:23;;;;;;;3.47;3.17;;;12.40;99.90;;;;;;5059317;28;20188;-29
2023/07/22 03:32:50;;;;;;;5.13;3.40;;;12.40;99.90;;;;;;5066850;28;20198;-29
2023/07/22 03:35:17;;;;;;;5.43;4.00;;;12.30;99.90;;;;;;5059376;28;20327;-29
2023/07/22 03:37:43;;;;;;;6.60;3.80;;;12.20;99.90;;;;;;5049793;28;20175;-29
2023/07/22 03:40:19;;;;;;;8.67;4.37;;;12.20;99.90;;;;;;5053826;28;20208;-29
2023/07/22 03:42:50;;;;;;;6.33;3.60;;;12.20;99.90;;;;;;5054363;28;20181;-29
2023/07/22 03:45:17;;;;;;;5.10;3.97;;;12.20;99.90;;;;;;5037269;28;20181;-29
2023/07/22 03:47:45;;;;;;;6.73;4.03;;;12.10;99.90;;;;;;5033298;28;20183;-30
2023/07/22 03:50:11;;;;;;;4.50;3.70;;;12.10;99.90;;;;;;5033391;28;20293;-30
2023/07/22 03:52:38;;;;;;;4.20;3.37;;;12.20;99.90;;;;;;5049413;28;20190;-30
2023/07/22 03:55:05;;;;;;;5.60;3.73;;;12.10;99.90;;;;;;5045526;28;20271;-29
2023/07/22 03:57:31;;;;;;;5.73;4.10;;;12.10;99.90;;;;;;5032550;28;20216;-29
2023/07/22 03:59:57;;;;;;;5.07;3.60;;;11.90;99.90;;;;;;5033499;28;20201;-29
2023/07/22 04:02:24;;;;;;;5.67;4.27;;;11.80;99.90;;;;;;5032896;28;20178;-29
2023/07/22 04:04:54;;;;;;;4.67;3.80;;;11.80;99.90;;;;;;5050732;28;20206;-29
2023/07/22 04:07:21;;;;;;;4.77;3.87;;;11.90;99.90;;;;;;5056368;28;20185;-30
2023/07/22 04:09:47;;;;;;;4.77;3.50;;;11.80;99.90;;;;;;5069523;28;20402;-30
2023/07/22 04:12:13;;;;;;;6.77;3.87;;;11.80;99.90;;;;;;5061571;28;20178;-29
2023/07/22 04:14:40;;;;;;;5.33;3.93;;;11.80;99.90;;;;;;5033045;28;20206;-29
2023/07/22 04:17:06;;;;;;;4.60;3.77;;;11.90;99.90;;;;;;5036559;28;20184;-30
2023/07/22 04:19:32;;;;;;;5.20;3.73;;;12.00;99.90;;;;;;5063748;28;20205;-29
2023/07/22 04:21:58;;;;;;;4.93;3.60;;;12.10;99.90;;;;;;5046085;28;20269;-29
2023/07/22 04:24:25;;;;;;;4.40;3.60;;;12.10;99.90;;;;;;5048041;28;20193;-30
2023/07/22 04:26:50;;;;;;;3.63;3.30;;;12.10;99.90;;;;;;5052673;28;20184;-30
2023/07/22 04:29:17;;;;;;;4.73;3.03;;;12.20;99.90;;;;;;5049532;28;20208;-30
2023/07/22 04:31:42;;;;;;;4.13;3.67;;;12.20;99.90;;;;;;5048383;28;20179;-29
2023/07/22 04:34:09;;;;;;;3.77;3.23;;;12.30;99.90;;;;;;5050127;28;20204;-29
2023/07/22 04:36:36;;;;;;;4.83;3.67;;;12.20;99.90;;;;;;5055793;28;20166;-30
2023/07/22 04:39:04;;;;;;;4.60;3.57;;;12.20;99.90;;;;;;5051395;28;20202;-30
2023/07/22 04:41:31;;;;;;;4.57;3.40;;;12.10;99.90;;;;;;5048841;28;20186;-29
2023/07/22 04:43:58;;;;;;;4.73;3.63;;;12.10;99.90;;;;;;5051330;28;20277;-29
2023/07/22 04:46:24;;;;;;;5.43;3.37;;;12.20;99.90;;;;;;5051695;28;20198;-29
2023/07/22 04:48:50;;;;;;;6.83;3.80;;;12.20;99.90;;;;;;5058408;28;20205;-29
2023/07/22 04:51:15;;;;;;;4.47;3.33;;;12.20;99.90;;;;;;5060191;28;20189;-29
2023/07/22 04:53:41;;;;;;;3.77;3.20;;;12.30;99.90;;;;;;5038012;28;20171;-29
2023/07/22 04:56:07;;;;;;;4.40;3.53;;;12.30;99.90;;;;;;5054733;28;20233;-30
2023/07/22 04:58:33;;;;;;;5.87;3.77;;;12.40;99.90;;;;;;5054929;28;20203;-29
2023/07/22 05:00:59;;;;;;;3.87;3.40;;;12.40;99.90;;;;;;5038152;28;20243;-29
2023/07/22 05:03:26;;;;;;;4.20;3.80;;;12.60;99.90;;;;;;5038594;28;20182;-29
2023/07/22 05:05:52;;;;;;;4.83;4.00;;;12.70;99.90;;;;;;5038488;28;20183;-30
2023/07/22 05:08:18;;;;;;;4.13;3.53;;;12.80;99.90;;;;;;5038255;28;20223;-29
2023/07/22 05:10:46;;;;;;;4.37;3.50;;;12.90;99.90;;;;;;5054822;28;20225;-29
2023/07/22 05:13:13;;;;;;;4.63;3.70;;;13.00;99.90;;;;;;5054484;28;20712;-29
2023/07/22 05:15:40;;;;;;;5.63;3.97;;;13.00;99.90;;;;;;5038106;28;20216;-30
2023/07/22 05:18:06;;;;;;;5.90;3.53;;;13.10;99.90;;;;;;5055170;28;20177;-29
2023/07/22 05:20:33;;;;;;;5.13;3.90;;;13.10;99.90;;;;;;5054349;28;20222;-29
2023/07/22 05:22:59;;;;;;;4.93;3.93;;;13.10;99.90;;;;;;5046659;28;20184;-29
2023/07/22 05:25:26;;;;;;;5.47;3.80;;;13.20;99.90;;;;;;5048657;28;20184;-30
2023/07/22 05:27:52;;;;;;;4.30;3.47;;;13.30;99.90;;;;;;5062655;28;20184;-30
2023/07/22 05:30:18;;;;;;;4.60;3.63;;;13.40;99.90;;;;;;5054773;28;20195;-29
2023/07/22 05:32:46;;;;;;;3.63;3.27;;;13.50;99.90;;;;;;5054826;28;20272;-29
2023/07/22 05:35:12;;;;;;;3.70;3.00;;;13.60;99.90;;;;;;5054849;28;20288;-30
2023/07/22 05:37:43;;;;;;;3.90;3.40;;;13.70;99.90;;;;;;5053620;28;20272;-29
2023/07/22 05:40:10;;;;;;;4.03;3.20;;;13.80;99.90;;;;;;5054778;28;20231;-29
2023/07/22 05:42:38;;;;;;;4.10;3.17;;;14.00;99.90;;;;;;5054566;28;20172;-29
2023/07/22 05:45:05;;;;;;;3.23;2.83;;;14.10;99.90;;;;;;5054699;28;20189;-29
2023/07/22 05:47:31;;;;;;;4.13;2.67;;;14.20;99.90;;;;;;5054231;28;20213;-30
2023/07/22 05:49:57;;;;;;;3.90;3.10;;;14.40;99.90;;;;;;5054354;28;20225;-29
2023/07/22 05:52:24;;;;;;;5.93;3.30;;;14.50;99.90;;;;;;5054158;28;20231;-29
2023/07/22 05:54:50;;;;;;;3.10;2.77;;;14.50;99.90;;;;;;5054174;28;20194;-29
2023/07/22 05:57:15;;;;;;;4.23;2.73;;;14.70;99.90;;;;;;5033486;28;20182;-31
2023/07/22 05:59:41;;;;;;;3.73;2.97;;;14.80;99.90;;;;;;5048610;28;20200;-30
2023/07/22 06:02:09;;;;;;;3.03;2.67;;;14.90;99.90;;;;;;5053466;28;20189;-30
2023/07/22 06:04:35;;;;;;;3.67;2.80;;;15.00;99.90;;;;;;5052049;28;20251;-29
2023/07/22 06:07:00;;;;;;;3.83;2.70;;;15.20;99.90;;;;;;5051624;28;20645;-29
2023/07/22 06:09:26;;;;;;;4.50;2.67;;;15.30;99.90;;;;;;5060348;28;20201;-30
2023/07/22 06:11:52;;;;;;;5.63;3.10;;;15.50;99.90;;;;;;5061643;28;20188;-30
2023/07/22 06:14:18;;;;;;;4.87;2.90;;;15.70;99.90;;;;;;5051481;28;20316;-29
2023/07/22 06:16:44;;;;;;;2.97;2.60;;;15.90;99.90;;;;;;5053090;28;20222;-30
2023/07/22 06:19:09;;;;;;;3.80;2.73;;;16.10;99.90;;;;;;5052851;28;20691;-30
2023/07/22 06:21:35;;;;;;;4.43;3.00;;;16.20;99.90;;;;;;5057861;28;20174;-30
2023/07/22 06:24:01;;;;;;;3.93;2.90;;;16.40;99.90;;;;;;5056122;28;20173;-30
2023/07/22 06:26:27;;;;;;;4.87;2.90;;;16.50;99.90;;;;;;5052731;28;20189;-30
2023/07/22 06:28:53;;;;;;;2.83;2.50;;;16.60;99.90;;;;;;5054892;28;20205;-30
2023/07/22 06:31:18;;;;;;;3.27;2.40;;;16.80;99.90;;;;;;5059206;28;20313;-30
2023/07/22 06:33:45;;;;;;;2.93;2.60;;;16.90;99.90;;;;;;5068713;28;20184;-30
2023/07/22 06:36:12;;;;;;;3.00;2.30;;;17.00;99.90;;;;;;5070398;28;20209;-30
2023/07/22 06:38:40;;;;;;;4.43;2.80;;;17.20;99.90;;;;;;5070639;28;20194;-30
2023/07/22 06:41:07;;;;;;;2.60;2.27;;;17.20;99.90;;;;;;5071077;28;20259;-30
2023/07/22 06:43:34;;;;;;;4.17;2.53;;;17.30;99.90;;;;;;5068951;28;20246;-29
2023/07/22 06:46:00;;;;;;;3.67;2.40;;;17.40;99.90;;;;;;5069112;28;20212;-30
2023/07/22 06:48:26;;;;;;;3.47;2.60;;;17.60;99.90;;;;;;5070732;28;20200;-29
2023/07/22 06:50:52;;;;;;;3.13;2.17;;;17.70;99.90;;;;;;5060810;28;20253;-30
2023/07/22 06:53:19;;;;;;;2.88;2.20;;;17.80;99.90;;;;;;5060685;28;20284;-30
2023/07/22 06:55:54;;;;;;;3.40;2.40;;;17.90;99.90;;;;;;5051857;28;20203;-29
2023/07/22 06:58:22;;;;;;;3.42;2.50;;;18.00;99.90;;;;;;5046336;28;20234;-30
2023/07/22 07:00:48;;;;;;;3.33;2.42;;;18.20;99.90;;;;;;5030765;28;20179;-30
2023/07/22 07:03:14;;;;;;;3.15;2.55;;;18.40;99.90;;;;;;5046952;28;20182;-31
2023/07/22 07:05:42;;;;;;;2.88;2.28;;;18.40;99.90;;;;;;5046780;28;20182;-30
2023/07/22 07:08:10;;;;;;;2.90;2.45;;;18.60;99.90;;;;;;5047412;28;20253;-30
2023/07/22 07:10:39;;;;;;;3.83;2.60;;;18.80;99.90;;;;;;5053607;28;20235;-31
2023/07/22 07:13:05;;;;;;;3.67;2.72;;;19.00;99.90;;;;;;5053540;28;20213;-30
2023/07/22 07:15:31;;;;;;;2.63;2.42;;;19.10;99.90;;;;;;5053783;28;20205;-30
2023/07/22 07:17:57;;;;;;;2.50;2.28;;;19.20;99.90;;;;;;5057485;28;20231;-30
2023/07/22 07:20:23;;;;;;;2.53;2.33;;;19.20;99.90;;;;;;5051045;28;20184;-30
2023/07/22 07:22:49;;;;;;;3.30;2.30;;;19.30;99.90;;;;;;5066562;28;20165;-30
2023/07/22 07:25:15;;;;;;;4.80;2.30;;;19.30;99.90;;;;;;5043546;28;20278;-30
2023/07/22 07:27:41;;;;;;;3.85;2.33;;;19.50;99.90;;;;;;5049802;28;20190;-30
2023/07/22 07:30:08;;;;;;;3.75;2.50;;;19.60;99.90;;;;;;5050966;28;20292;-30
2023/07/22 07:32:34;;;;;;;3.60;2.67;;;19.60;99.90;;;;;;5049766;28;20177;-30
2023/07/22 07:35:01;;;;;;;3.22;2.65;;;19.70;99.90;;;;;;5050296;28;20273;-30
2023/07/22 07:37:27;;;;;;;3.85;2.53;;;19.90;99.90;;;;;;5034844;28;20178;-30
2023/07/22 07:39:52;;;;;;;2.60;2.38;;;20.00;99.90;;;;;;5034723;28;20205;-30
2023/07/22 07:42:21;;;;;;;2.88;2.03;;;20.00;99.90;;;;;;5051117;28;20185;-30
2023/07/22 07:44:47;;;;;;;2.42;2.22;;;20.20;99.90;;;;;;5051081;28;20715;-29
2023/07/22 07:47:13;;;;;;;2.50;2.28;;;20.50;99.90;;;;;;5049887;28;20186;-30
2023/07/22 07:49:40;;;;;;;2.65;2.03;;;20.60;99.90;;;;;;5049261;28;20259;-30
2023/07/22 07:52:06;;;;;;;3.38;2.10;;;20.70;99.90;;;;;;5033669;28;20181;-30
2023/07/22 07:54:32;;;;;;;2.25;2.05;;;20.80;99.90;;;;;;5034038;28;20205;-30
2023/07/22 07:56:58;;;;;;;3.75;2.10;;;20.90;99.90;;;;;;5055834;28;20184;-31
2023/07/22 07:59:24;;;;;;;3.17;2.20;;;21.00;99.90;;;;;;5067881;28;20197;-31
2023/07/22 08:01:49;;;;;;;2.03;1.83;;;21.10;99.90;;;;;;5049930;28;20181;-30
2023/07/22 08:04:17;;;;;;;2.10;1.80;;;21.30;99.90;;;;;;5042389;28;20208;-30
2023/07/22 08:06:43;;;;;;;2.00;1.77;;;21.30;99.90;;;;;;5060988;28;20174;-31
2023/07/22 08:09:10;;;;;;;2.17;1.98;;;21.50;99.90;;;;;;5051487;28;20289;-31
2023/07/22 08:11:37;;;;;;;2.50;2.10;;;21.50;99.90;;;;;;5056976;28;20188;-31
2023/07/22 08:14:05;;;;;;;3.20;2.08;;;21.60;99.90;;;;;;5056945;28;20178;-30
2023/07/22 08:16:34;;;;;;;2.60;2.40;;;21.80;99.90;;;;;;5042524;28;20257;-29
2023/07/22 08:19:01;;;;;;;4.07;2.30;;;21.90;99.90;;;;;;5047751;28;20252;-30
2023/07/22 08:21:27;;;;;;;3.45;2.10;;;22.10;99.90;;;;;;5052256;28;20177;-30
2023/07/22 08:23:54;;;;;;;3.92;1.92;;;22.10;99.90;;;;;;5045010;28;20188;-30
2023/07/22 08:26:21;;;;;;;3.20;1.77;;;22.20;99.90;;;;;;5059809;28;20249;-30
2023/07/22 08:28:48;;;;;;;2.83;1.90;;;22.20;99.90;;;;;;5037603;28;20205;-31
2023/07/22 08:31:13;;;;;;;2.92;2.00;;;22.40;99.90;;;;;;5059885;28;20192;-30
2023/07/22 08:33:39;;;;;;;4.57;2.10;;;22.60;99.90;;;;;;5052773;28;20182;-30
2023/07/22 08:36:05;;;;;;;2.63;2.20;;;22.60;99.90;;;;;;5034157;28;20217;-32
2023/07/22 08:38:32;;;;;;;2.50;1.90;;;22.80;99.90;;;;;;5052301;28;20216;-30
2023/07/22 08:40:58;;;;;;;3.42;1.90;;;22.90;99.90;;;;;;5037989;28;20174;-30
2023/07/22 08:43:29;;;;;;;1.90;1.60;;;23.10;99.90;;;;;;5051968;28;20174;-31
2023/07/22 08:46:01;;;;;;;2.13;1.90;;;23.20;99.90;;;;;;5053008;28;20181;-31
2023/07/22 08:48:30;;;;;;;2.25;1.38;;;23.40;99.90;;;;;;5045905;28;20255;-30
2023/07/22 08:51:09;;;;;;;2.58;1.55;;;23.50;99.90;;;;;;5052780;28;20250;-30
2023/07/22 08:53:36;;;;;;;2.17;1.80;;;23.60;99.90;;;;;;5034319;28;20182;-30
2023/07/22 08:56:03;;;;;;;2.22;1.63;;;23.60;99.90;;;;;;5036118;28;20206;-30
2023/07/22 08:58:29;;;;;;;1.73;1.50;;;23.60;99.90;;;;;;5036893;28;20294;-31
2023/07/22 09:00:56;;;;;;;1.75;1.60;;;23.50;99.90;;;;;;5048940;28;20178;-31
2023/07/22 09:03:23;;;;;;;3.72;1.40;;;23.80;99.90;;;;;;5035514;28;20183;-30
2023/07/22 09:05:54;;;;;;;2.00;1.27;;;23.90;99.90;;;;;;5050416;28;20186;-31
2023/07/22 09:08:24;;;;;;;2.80;1.63;;;23.60;99.90;;;;;;5046546;28;20202;-30
2023/07/22 09:10:51;;;;;;;3.95;1.58;;;23.20;99.90;;;;;;5046917;28;20170;-30
2023/07/22 09:13:18;;;;;;;4.28;1.33;;;23.00;99.90;;;;;;5037628;28;20178;-30
2023/07/22 09:15:50;;;;;;;1.85;1.38;;;22.80;99.90;;;;;;5036320;28;20212;-30
2023/07/22 09:18:18;;;;;;;7.47;1.70;;;22.60;99.90;;;;;;5051320;28;20266;-30
2023/07/22 09:20:48;;;;;;;3.45;1.50;;;22.70;99.90;;;;;;5051268;28;20182;-31
2023/07/22 09:23:24;;;;;;;4.07;1.80;;;23.00;99.90;;;;;;5033922;28;20216;-31
2023/07/22 09:25:50;;;;;;;2.28;1.25;;;23.40;99.90;;;;;;5049040;28;20180;-32
2023/07/22 09:28:16;;;;;;;2.38;1.50;;;23.80;99.90;;;;;;5034454;28;20217;-30
2023/07/22 09:30:42;;;;;;;5.40;1.60;;;23.90;99.90;;;;;;5034544;28;20177;-31
2023/07/22 09:33:28;;;;;;;2.53;1.30;;;23.90;99.90;;;;;;5033779;28;20367;-31
2023/07/22 09:35:55;;;;;;;1.40;1.30;;;23.60;99.90;;;;;;5032872;28;20312;-31
2023/07/22 09:38:25;;;;;;;1.92;1.55;;;23.50;99.90;;;;;;5033948;28;20205;-31
2023/07/22 09:40:52;;;;;;;2.95;1.40;;;23.50;99.90;;;;;;5057029;28;20184;-31
2023/07/22 09:43:17;;;;;;;3.25;1.50;;;23.60;99.90;;;;;;5046705;28;20342;-31
2023/07/22 09:45:48;;;;;;;2.25;1.60;;;23.50;99.90;;;;;;5064074;28;20278;-31
2023/07/22 09:48:14;;;;;;;2.65;1.48;;;23.80;99.90;;;;;;5071138;28;20216;-31
2023/07/22 09:50:40;;;;;;;1.77;1.63;;;24.10;99.90;;;;;;5054593;28;20214;-31
2023/07/22 09:53:06;;;;;;;1.83;1.40;;;24.60;99.90;;;;;;5053836;28;20177;-31
2023/07/22 09:55:33;;;;;;;2.58;1.45;;;24.90;99.90;;;;;;5034409;28;20209;-31
2023/07/22 09:58:01;;;;;;;4.13;1.50;;;25.10;99.90;;;;;;5053273;28;20640;-31
2023/07/22 10:00:33;;;;;;;4.15;1.65;;;24.90;99.90;;;;;;5034470;28;20178;-31
2023/07/22 10:03:01;;;;;;;1.95;1.70;;;24.70;99.90;;;;;;5041561;28;20177;-31
2023/07/22 10:05:29;;;;;;;1.75;1.65;;;24.80;99.90;;;;;;5058534;28;20178;-30
2023/07/22 10:07:58;;;;;;;1.65;1.55;;;24.70;99.90;;;;;;5050429;28;20182;-31
2023/07/22 10:10:30;;;;;;;6.38;1.60;;;24.90;99.90;;;;;;5054417;28;20178;-31
2023/07/22 10:12:57;;;;;;;1.50;1.40;;;24.80;99.90;;;;;;5051245;28;20178;-31
2023/07/22 10:15:27;;;;;;;3.47;1.80;;;24.60;99.90;;;;;;4980383;28;2022306;-31
2023/07/22 10:17:54;;;;;;;3.95;1.80;;;24.40;99.90;;;;;;5051235;28;20190;-31
2023/07/22 10:20:23;;;;;;;1.67;1.27;;;24.30;99.90;;;;;;5051406;28;20189;-31
2023/07/22 10:22:50;;;;;;;2.13;1.70;;;24.10;99.90;;;;;;5035005;28;20182;-31
2023/07/22 10:25:18;;;;;;;2.72;1.60;;;24.00;99.90;;;;;;5034740;28;20196;-31
2023/07/22 10:27:44;;;;;;;1.92;1.70;;;23.90;99.90;;;;;;5042588;28;20220;-31
2023/07/22 10:30:13;;;;;;;2.17;1.75;;;23.90;99.90;;;;;;5051458;28;20215;-32
2023/07/22 10:32:51;;;;;;;1.83;1.73;;;24.00;99.90;;;;;;5034959;28;20249;-31
2023/07/22 10:35:40;;;;;;;3.63;1.92;;;24.30;99.90;;;;;;5050554;28;20288;-32
2023/07/22 10:38:09;;;;;;;2.30;1.70;;;24.70;99.90;;;;;;5051242;28;20265;-31
2023/07/22 10:40:51;;;;;;;2.25;1.98;;;25.00;99.90;;;;;;5035067;28;20245;-30
2023/07/22 10:43:23;;;;;;;2.88;2.00;;;25.00;99.90;;;;;;5034290;28;20226;-31
2023/07/22 10:45:52;;;;;;;2.78;1.83;;;24.90;99.90;;;;;;5033843;28;20213;-30
2023/07/22 10:48:18;;;;;;;3.97;1.98;;;24.80;99.90;;;;;;5034788;28;20202;-30
2023/07/22 10:50:49;;;;;;;2.35;1.58;;;24.90;99.90;;;;;;5029852;28;20181;-31
2023/07/22 10:53:20;;;;;;;2.95;1.80;;;25.20;99.90;;;;;;5034617;28;20189;-31
2023/07/22 10:56:05;;;;;;;4.03;1.95;;;25.50;99.90;;;;;;5036598;28;20327;-31
2023/07/22 10:58:32;;;;;;;2.78;1.98;;;25.80;99.90;;;;;;5034045;28;20293;-31
2023/07/22 11:01:27;;;;;;;3.72;2.00;;;25.80;99.90;;;;;;5033724;28;20184;-31
2023/07/22 11:04:07;;;;;;;2.55;1.67;;;26.10;99.90;;;;;;5034024;28;20170;-31
2023/07/22 11:06:34;;;;;;;2.53;2.10;;;26.30;99.90;;;;;;5033801;28;20186;-31
2023/07/22 11:09:00;;;;;;;2.50;2.00;;;26.20;99.90;;;;;;5033771;28;20207;-31
2023/07/22 11:11:40;;;;;;;2.90;1.90;;;26.20;99.90;;;;;;5033498;28;20193;-31
2023/07/22 11:14:16;;;;;;;2.00;1.65;;;26.40;99.90;;;;;;5032358;28;20645;-32
2023/07/22 11:16:46;;;;;;;2.22;1.98;;;26.30;99.90;;;;;;5033651;28;20198;-30
2023/07/22 11:19:18;;;;;;;3.90;1.90;;;26.10;99.90;;;;;;5050574;28;20215;-30
2023/07/22 11:21:45;;;;;;;2.70;1.98;;;25.70;99.90;;;;;;5049916;28;20235;-31
2023/07/22 11:24:12;;;;;;;2.53;2.25;;;25.70;99.90;;;;;;5050506;28;20186;-31
2023/07/22 11:26:40;;;;;;;2.97;1.92;;;25.90;99.90;;;;;;5066533;28;20181;-31
2023/07/22 11:29:09;;;;;;;2.58;1.95;;;26.30;99.90;;;;;;5082918;28;20217;-32
2023/07/22 11:32:02;;;;;;;2.00;1.75;;;26.40;99.90;;;;;;5060953;28;20183;-30
2023/07/22 11:34:30;;;;;;;2.25;2.05;;;26.50;99.90;;;;;;5027256;28;20194;-31
2023/07/22 11:36:58;;;;;;;3.22;2.17;;;26.40;99.90;;;;;;5037349;28;20204;-31
2023/07/22 11:39:27;;;;;;;2.78;2.00;;;26.60;99.90;;;;;;5038351;28;20224;-32
2023/07/22 11:41:53;;;;;;;3.10;2.30;;;26.80;99.90;;;;;;5048218;28;20180;-30
2023/07/22 11:44:26;;;;;;;2.20;2.00;;;27.00;99.90;;;;;;5048611;28;20177;-31
2023/07/22 11:47:07;;;;;;;2.85;2.10;;;26.80;99.90;;;;;;5033036;28;20220;-31
2023/07/22 11:49:41;;;;;;;4.65;2.30;;;26.70;99.90;;;;;;5032671;28;20221;-31
2023/07/22 11:52:15;;;;;;;3.13;2.20;;;26.50;99.90;;;;;;5032195;28;20232;-31
2023/07/22 11:54:42;;;;;;;3.90;1.85;;;26.30;99.90;;;;;;5048926;28;20193;-32
2023/07/22 11:57:15;;;;;;;3.72;2.30;;;26.40;99.90;;;;;;5048696;28;20181;-32
2023/07/22 11:59:49;;;;;;;2.03;1.90;;;26.60;99.90;;;;;;5046694;28;20198;-31
2023/07/22 12:02:19;;;;;;;2.08;1.77;;;26.80;99.90;;;;;;5032285;28;20214;-31
2023/07/22 12:05:05;;;;;;;3.53;2.50;;;26.90;99.80;;;;;;5031380;28;20281;-31
2023/07/22 12:07:33;;;;;;;2.40;1.92;;;26.70;99.90;;;;;;5047444;28;20178;-30
2023/07/22 12:10:01;;;;;;;4.03;2.17;;;26.60;99.90;;;;;;5032987;28;20217;-31
2023/07/22 12:12:49;;;;;;;1.98;1.88;;;26.70;99.90;;;;;;5048765;28;20181;-32
2023/07/22 12:15:16;;;;;;;2.30;2.10;;;26.90;99.90;;;;;;5055952;28;20216;-31
2023/07/22 12:17:50;;;;;;;3.35;1.90;;;26.90;99.00;;;;;;5058610;28;20185;-31
2023/07/22 12:20:16;;;;;;;2.92;1.85;;;26.90;99.80;;;;;;5048167;28;20178;-31
2023/07/22 12:22:45;;;;;;;2.20;2.00;;;27.00;99.90;;;;;;5049051;28;20181;-31
2023/07/22 12:25:11;;;;;;;2.83;1.88;;;27.10;99.70;;;;;;5048492;28;20182;-31
2023/07/22 12:27:38;;;;;;;3.80;2.05;;;26.70;99.20;;;;;;5031763;28;20178;-31
2023/07/22 12:30:05;;;;;;;2.88;1.80;;;26.60;99.90;;;;;;5032319;28;20201;-31
2023/07/22 12:32:31;;;;;;;2.83;2.10;;;26.80;99.70;;;;;;5034016;28;20182;-32
2023/07/22 12:34:57;;;;;;;3.50;1.90;;;26.90;99.40;;;;;;5051226;28;20271;-31
2023/07/22 12:37:25;;;;;;;2.15;1.95;;;27.10;99.30;;;;;;5049941;28;20162;-32
2023/07/22 12:39:51;;;;;;;3.80;2.00;;;27.20;98.70;;;;;;5034308;28;20216;-30
2023/07/22 12:42:18;;;;;;;395.65;355.08;;;27.30;99.20;;;;;;5036732;28;20181;-31
2023/07/22 12:44:46;;;;;;;14.57;13.18;;;27.40;99.50;;;;;;5048584;28;20178;-31
2023/07/22 12:47:12;;;;;;;129.88;115.60;;;27.20;98.50;;;;;;5031369;28;20185;-32